sensor_id;sensor_type;location;lat;lon;timestamp;P1;durP1;ratioP1;P2;durP2;ratioP2
62050;SDS011;48008;51.204;6.766;2022-09-12T00:01:13;72.00;;;31.73;;
62050;SDS011;48008;51.204;6.766;2022-09-12T00:03:42;64.87;;;31.73;;
62050;SDS011;48008;51.204;6.766;2022-09-12T00:08:46;61.47;;;30.67;;
62050;SDS011;48008;51.204;6.766;2022-09-12T00:11:13;66.78;;;31.52;;
62050;SDS011;48008;51.204;6.766;2022-09-12T00:13:40;75.10;;;33.25;;
62050;SDS011;48008;51.204;6.766;2022-09-12T00:16:24;63.90;;;31.27;;
62050;SDS011;48008;51.204;6.766;2022-09-12T00:18:52;66.00;;;32.03;;
62050;SDS011;48008;51.204;6.766;2022-09-12T00:21:20;64.78;;;31.60;;
62050;SDS011;48008;51.204;6.766;2022-09-12T00:23:47;70.88;;;31.40;;
62050;SDS011;48008;51.204;6.766;2022-09-12T00:26:15;65.40;;;32.80;;
62050;SDS011;48008;51.204;6.766;2022-09-12T00:28:43;62.35;;;30.60;;
62050;SDS011;48008;51.204;6.766;2022-09-12T00:31:11;64.80;;;31.70;;
62050;SDS011;48008;51.204;6.766;2022-09-12T00:33:40;66.13;;;31.65;;
62050;SDS011;48008;51.204;6.766;2022-09-12T00:36:09;66.78;;;30.75;;
62050;SDS011;48008;51.204;6.766;2022-09-12T00:38:40;61.53;;;30.88;;
62050;SDS011;48008;51.204;6.766;2022-09-12T00:41:13;70.15;;;30.98;;
62050;SDS011;48008;51.204;6.766;2022-09-12T00:43:45;67.38;;;31.35;;
62050;SDS011;48008;51.204;6.766;2022-09-12T00:46:24;60.78;;;29.95;;
62050;SDS011;48008;51.204;6.766;2022-09-12T00:49:05;65.70;;;30.45;;
62050;SDS011;48008;51.204;6.766;2022-09-12T00:51:38;65.70;;;31.48;;
62050;SDS011;48008;51.204;6.766;2022-09-12T00:54:11;62.88;;;30.38;;
62050;SDS011;48008;51.204;6.766;2022-09-12T00:56:42;63.80;;;30.65;;
62050;SDS011;48008;51.204;6.766;2022-09-12T00:59:14;63.75;;;31.17;;
62050;SDS011;48008;51.204;6.766;2022-09-12T01:01:48;62.83;;;30.08;;
62050;SDS011;48008;51.204;6.766;2022-09-12T01:04:16;63.17;;;30.65;;
62050;SDS011;48008;51.204;6.766;2022-09-12T01:06:45;67.75;;;31.98;;
62050;SDS011;48008;51.204;6.766;2022-09-12T01:09:16;66.55;;;29.63;;
62050;SDS011;48008;51.204;6.766;2022-09-12T01:11:45;63.95;;;30.55;;
62050;SDS011;48008;51.204;6.766;2022-09-12T01:14:14;65.85;;;30.52;;
62050;SDS011;48008;51.204;6.766;2022-09-12T01:16:42;63.67;;;30.88;;
62050;SDS011;48008;51.204;6.766;2022-09-12T01:33:04;62.50;;;30.35;;
62050;SDS011;48008;51.204;6.766;2022-09-12T01:38:37;60.53;;;29.10;;
62050;SDS011;48008;51.204;6.766;2022-09-12T01:41:15;64.28;;;29.60;;
62050;SDS011;48008;51.204;6.766;2022-09-12T01:46:45;60.28;;;29.65;;
62050;SDS011;48008;51.204;6.766;2022-09-12T01:49:22;61.00;;;29.27;;
62050;SDS011;48008;51.204;6.766;2022-09-12T01:54:46;66.88;;;29.20;;
62050;SDS011;48008;51.204;6.766;2022-09-12T01:57:19;55.10;;;27.55;;
62050;SDS011;48008;51.204;6.766;2022-09-12T01:59:53;58.63;;;28.77;;
62050;SDS011;48008;51.204;6.766;2022-09-12T02:02:26;55.33;;;28.42;;
62050;SDS011;48008;51.204;6.766;2022-09-12T02:05:01;62.00;;;28.33;;
62050;SDS011;48008;51.204;6.766;2022-09-12T02:07:44;59.65;;;28.40;;
62050;SDS011;48008;51.204;6.766;2022-09-12T02:10:16;57.75;;;27.00;;
62050;SDS011;48008;51.204;6.766;2022-09-12T02:13:21;53.92;;;27.45;;
62050;SDS011;48008;51.204;6.766;2022-09-12T02:15:38;53.50;;;27.35;;
62050;SDS011;48008;51.204;6.766;2022-09-12T02:20:38;56.17;;;25.15;;
62050;SDS011;48008;51.204;6.766;2022-09-12T02:23:16;55.67;;;26.20;;
62050;SDS011;48008;51.204;6.766;2022-09-12T02:25:49;55.10;;;26.52;;
62050;SDS011;48008;51.204;6.766;2022-09-12T02:28:25;51.88;;;26.13;;
62050;SDS011;48008;51.204;6.766;2022-09-12T02:31:12;49.00;;;24.83;;
62050;SDS011;48008;51.204;6.766;2022-09-12T02:39:33;46.40;;;24.58;;
62050;SDS011;48008;51.204;6.766;2022-09-12T02:42:00;49.13;;;23.38;;
62050;SDS011;48008;51.204;6.766;2022-09-12T02:44:29;49.13;;;24.10;;
62050;SDS011;48008;51.204;6.766;2022-09-12T02:47:05;48.85;;;24.63;;
62050;SDS011;48008;51.204;6.766;2022-09-12T02:49:36;51.15;;;24.13;;
62050;SDS011;48008;51.204;6.766;2022-09-12T02:52:03;53.00;;;24.25;;
62050;SDS011;48008;51.204;6.766;2022-09-12T02:54:30;47.67;;;24.95;;
62050;SDS011;48008;51.204;6.766;2022-09-12T02:56:57;46.17;;;23.40;;
62050;SDS011;48008;51.204;6.766;2022-09-12T02:59:24;50.28;;;23.83;;
62050;SDS011;48008;51.204;6.766;2022-09-12T03:01:58;50.80;;;23.67;;
62050;SDS011;48008;51.204;6.766;2022-09-12T03:04:43;48.83;;;22.73;;
62050;SDS011;48008;51.204;6.766;2022-09-12T03:10:21;49.50;;;23.85;;
62050;SDS011;48008;51.204;6.766;2022-09-12T03:19:03;49.03;;;23.55;;
62050;SDS011;48008;51.204;6.766;2022-09-12T03:21:48;51.88;;;23.10;;
62050;SDS011;48008;51.204;6.766;2022-09-12T03:24:50;44.47;;;22.45;;
62050;SDS011;48008;51.204;6.766;2022-09-12T03:27:26;45.90;;;22.42;;
62050;SDS011;48008;51.204;6.766;2022-09-12T03:29:58;47.28;;;22.38;;
62050;SDS011;48008;51.204;6.766;2022-09-12T03:32:42;41.97;;;22.15;;
62050;SDS011;48008;51.204;6.766;2022-09-12T03:35:10;44.78;;;22.00;;
62050;SDS011;48008;51.204;6.766;2022-09-12T03:37:38;41.00;;;21.70;;
62050;SDS011;48008;51.204;6.766;2022-09-12T03:40:06;44.90;;;21.02;;
62050;SDS011;48008;51.204;6.766;2022-09-12T03:42:34;48.00;;;21.27;;
62050;SDS011;48008;51.204;6.766;2022-09-12T03:45:01;39.13;;;20.90;;
62050;SDS011;48008;51.204;6.766;2022-09-12T03:47:29;42.65;;;20.27;;
62050;SDS011;48008;51.204;6.766;2022-09-12T03:49:55;48.03;;;20.80;;
62050;SDS011;48008;51.204;6.766;2022-09-12T03:52:22;44.63;;;21.13;;
62050;SDS011;48008;51.204;6.766;2022-09-12T03:54:49;40.63;;;21.23;;
62050;SDS011;48008;51.204;6.766;2022-09-12T03:57:16;41.15;;;20.83;;
62050;SDS011;48008;51.204;6.766;2022-09-12T03:59:43;40.40;;;20.13;;
62050;SDS011;48008;51.204;6.766;2022-09-12T04:02:10;41.25;;;21.30;;
62050;SDS011;48008;51.204;6.766;2022-09-12T04:04:40;45.72;;;21.38;;
62050;SDS011;48008;51.204;6.766;2022-09-12T04:07:09;43.47;;;20.42;;
62050;SDS011;48008;51.204;6.766;2022-09-12T04:09:36;42.83;;;20.55;;
62050;SDS011;48008;51.204;6.766;2022-09-12T04:12:03;40.63;;;19.08;;
62050;SDS011;48008;51.204;6.766;2022-09-12T04:14:31;40.83;;;19.55;;
62050;SDS011;48008;51.204;6.766;2022-09-12T04:16:57;37.35;;;19.73;;
62050;SDS011;48008;51.204;6.766;2022-09-12T04:19:24;36.70;;;19.42;;
62050;SDS011;48008;51.204;6.766;2022-09-12T04:21:52;42.03;;;19.48;;
62050;SDS011;48008;51.204;6.766;2022-09-12T04:24:18;40.55;;;19.95;;
62050;SDS011;48008;51.204;6.766;2022-09-12T04:26:45;46.45;;;19.98;;
62050;SDS011;48008;51.204;6.766;2022-09-12T04:29:12;36.35;;;18.83;;
62050;SDS011;48008;51.204;6.766;2022-09-12T04:31:40;38.15;;;19.70;;
62050;SDS011;48008;51.204;6.766;2022-09-12T04:34:07;40.88;;;19.77;;
62050;SDS011;48008;51.204;6.766;2022-09-12T04:36:35;41.25;;;19.45;;
62050;SDS011;48008;51.204;6.766;2022-09-12T04:39:03;39.97;;;20.33;;
62050;SDS011;48008;51.204;6.766;2022-09-12T04:41:31;36.25;;;19.90;;
62050;SDS011;48008;51.204;6.766;2022-09-12T04:44:02;40.47;;;20.27;;
62050;SDS011;48008;51.204;6.766;2022-09-12T04:46:32;42.15;;;20.45;;
62050;SDS011;48008;51.204;6.766;2022-09-12T04:49:02;38.20;;;21.00;;
62050;SDS011;48008;51.204;6.766;2022-09-12T04:51:30;43.30;;;20.75;;
62050;SDS011;48008;51.204;6.766;2022-09-12T04:54:00;37.22;;;19.73;;
62050;SDS011;48008;51.204;6.766;2022-09-12T04:56:30;36.47;;;19.58;;
62050;SDS011;48008;51.204;6.766;2022-09-12T04:58:57;39.45;;;18.45;;
62050;SDS011;48008;51.204;6.766;2022-09-12T05:01:26;37.38;;;19.40;;
62050;SDS011;48008;51.204;6.766;2022-09-12T05:03:55;35.10;;;19.10;;
62050;SDS011;48008;51.204;6.766;2022-09-12T05:06:23;39.30;;;18.25;;
62050;SDS011;48008;51.204;6.766;2022-09-12T05:08:52;34.75;;;18.75;;
62050;SDS011;48008;51.204;6.766;2022-09-12T05:11:20;37.25;;;18.13;;
62050;SDS011;48008;51.204;6.766;2022-09-12T05:13:50;35.07;;;18.90;;
62050;SDS011;48008;51.204;6.766;2022-09-12T05:16:19;36.03;;;17.33;;
62050;SDS011;48008;51.204;6.766;2022-09-12T05:18:47;39.83;;;18.48;;
62050;SDS011;48008;51.204;6.766;2022-09-12T05:21:16;38.58;;;18.25;;
62050;SDS011;48008;51.204;6.766;2022-09-12T05:23:45;35.33;;;18.30;;
62050;SDS011;48008;51.204;6.766;2022-09-12T05:26:14;32.75;;;17.48;;
62050;SDS011;48008;51.204;6.766;2022-09-12T05:28:42;33.42;;;17.95;;
62050;SDS011;48008;51.204;6.766;2022-09-12T05:31:13;32.60;;;16.98;;
62050;SDS011;48008;51.204;6.766;2022-09-12T05:33:42;38.75;;;18.02;;
62050;SDS011;48008;51.204;6.766;2022-09-12T05:36:11;34.03;;;17.33;;
62050;SDS011;48008;51.204;6.766;2022-09-12T05:38:41;32.40;;;16.73;;
62050;SDS011;48008;51.204;6.766;2022-09-12T05:41:09;36.55;;;16.90;;
62050;SDS011;48008;51.204;6.766;2022-09-12T05:43:41;34.65;;;16.90;;
62050;SDS011;48008;51.204;6.766;2022-09-12T05:46:10;32.28;;;17.23;;
62050;SDS011;48008;51.204;6.766;2022-09-12T05:48:39;35.20;;;16.75;;
62050;SDS011;48008;51.204;6.766;2022-09-12T05:51:08;33.25;;;16.67;;
62050;SDS011;48008;51.204;6.766;2022-09-12T05:53:42;38.65;;;16.90;;
62050;SDS011;48008;51.204;6.766;2022-09-12T05:56:10;36.70;;;17.40;;
62050;SDS011;48008;51.204;6.766;2022-09-12T05:58:39;32.67;;;16.83;;
62050;SDS011;48008;51.204;6.766;2022-09-12T06:01:09;32.63;;;16.65;;
62050;SDS011;48008;51.204;6.766;2022-09-12T06:03:41;32.67;;;16.02;;
62050;SDS011;48008;51.204;6.766;2022-09-12T06:06:10;31.92;;;16.00;;
62050;SDS011;48008;51.204;6.766;2022-09-12T06:08:39;29.83;;;16.17;;
62050;SDS011;48008;51.204;6.766;2022-09-12T06:11:08;33.05;;;16.70;;
62050;SDS011;48008;51.204;6.766;2022-09-12T06:13:37;31.85;;;16.85;;
62050;SDS011;48008;51.204;6.766;2022-09-12T06:16:06;32.25;;;16.02;;
62050;SDS011;48008;51.204;6.766;2022-09-12T06:18:36;27.58;;;15.15;;
62050;SDS011;48008;51.204;6.766;2022-09-12T06:21:05;30.25;;;14.55;;
62050;SDS011;48008;51.204;6.766;2022-09-12T06:23:35;26.80;;;14.88;;
62050;SDS011;48008;51.204;6.766;2022-09-12T06:26:03;30.60;;;15.07;;
62050;SDS011;48008;51.204;6.766;2022-09-12T06:28:33;27.98;;;14.93;;
62050;SDS011;48008;51.204;6.766;2022-09-12T06:31:04;33.33;;;16.38;;
62050;SDS011;48008;51.204;6.766;2022-09-12T06:33:35;26.77;;;15.63;;
62050;SDS011;48008;51.204;6.766;2022-09-12T06:36:07;30.55;;;15.73;;
62050;SDS011;48008;51.204;6.766;2022-09-12T06:38:38;27.90;;;14.63;;
62050;SDS011;48008;51.204;6.766;2022-09-12T06:41:06;28.50;;;14.63;;
62050;SDS011;48008;51.204;6.766;2022-09-12T06:43:34;25.98;;;14.45;;
62050;SDS011;48008;51.204;6.766;2022-09-12T06:46:02;25.75;;;13.65;;
62050;SDS011;48008;51.204;6.766;2022-09-12T06:48:30;30.08;;;15.13;;
62050;SDS011;48008;51.204;6.766;2022-09-12T06:50:57;37.63;;;14.73;;
62050;SDS011;48008;51.204;6.766;2022-09-12T06:53:27;30.83;;;14.50;;
62050;SDS011;48008;51.204;6.766;2022-09-12T06:55:56;29.13;;;15.25;;
62050;SDS011;48008;51.204;6.766;2022-09-12T06:58:24;31.23;;;15.23;;
62050;SDS011;48008;51.204;6.766;2022-09-12T07:00:52;31.67;;;14.35;;
62050;SDS011;48008;51.204;6.766;2022-09-12T07:03:26;28.90;;;15.23;;
62050;SDS011;48008;51.204;6.766;2022-09-12T07:05:53;29.48;;;15.52;;
62050;SDS011;48008;51.204;6.766;2022-09-12T07:08:20;29.90;;;15.30;;
62050;SDS011;48008;51.204;6.766;2022-09-12T07:10:46;29.00;;;15.32;;
62050;SDS011;48008;51.204;6.766;2022-09-12T07:13:13;30.45;;;15.40;;
62050;SDS011;48008;51.204;6.766;2022-09-12T07:15:40;290.10;;;39.75;;
62050;SDS011;48008;51.204;6.766;2022-09-12T07:18:07;30.55;;;15.95;;
62050;SDS011;48008;51.204;6.766;2022-09-12T07:20:36;33.15;;;16.10;;
62050;SDS011;48008;51.204;6.766;2022-09-12T07:23:03;31.48;;;16.00;;
62050;SDS011;48008;51.204;6.766;2022-09-12T07:25:30;34.38;;;18.02;;
62050;SDS011;48008;51.204;6.766;2022-09-12T07:27:56;31.65;;;15.90;;
62050;SDS011;48008;51.204;6.766;2022-09-12T07:30:23;33.47;;;16.50;;
62050;SDS011;48008;51.204;6.766;2022-09-12T07:32:50;32.33;;;17.05;;
62050;SDS011;48008;51.204;6.766;2022-09-12T07:35:19;34.85;;;16.52;;
62050;SDS011;48008;51.204;6.766;2022-09-12T07:37:46;32.30;;;16.67;;
62050;SDS011;48008;51.204;6.766;2022-09-12T07:40:13;30.08;;;16.48;;
62050;SDS011;48008;51.204;6.766;2022-09-12T07:42:40;28.45;;;16.33;;
62050;SDS011;48008;51.204;6.766;2022-09-12T07:45:07;27.85;;;15.77;;
62050;SDS011;48008;51.204;6.766;2022-09-12T07:47:34;28.50;;;15.15;;
62050;SDS011;48008;51.204;6.766;2022-09-12T07:50:01;30.23;;;15.25;;
62050;SDS011;48008;51.204;6.766;2022-09-12T07:52:27;29.30;;;15.10;;
62050;SDS011;48008;51.204;6.766;2022-09-12T07:54:54;29.73;;;15.35;;
62050;SDS011;48008;51.204;6.766;2022-09-12T07:57:21;30.15;;;16.05;;
62050;SDS011;48008;51.204;6.766;2022-09-12T07:59:48;30.65;;;14.52;;
62050;SDS011;48008;51.204;6.766;2022-09-12T08:02:17;26.80;;;15.02;;
62050;SDS011;48008;51.204;6.766;2022-09-12T08:04:45;43.85;;;15.48;;
62050;SDS011;48008;51.204;6.766;2022-09-12T08:07:13;32.20;;;15.52;;
62050;SDS011;48008;51.204;6.766;2022-09-12T08:09:40;27.58;;;14.75;;
62050;SDS011;48008;51.204;6.766;2022-09-12T08:12:07;27.92;;;14.65;;
62050;SDS011;48008;51.204;6.766;2022-09-12T08:14:34;35.92;;;15.73;;
62050;SDS011;48008;51.204;6.766;2022-09-12T08:17:00;31.17;;;15.50;;
62050;SDS011;48008;51.204;6.766;2022-09-12T08:19:27;32.95;;;14.43;;
62050;SDS011;48008;51.204;6.766;2022-09-12T08:21:54;32.08;;;15.13;;
62050;SDS011;48008;51.204;6.766;2022-09-12T08:24:21;34.65;;;15.40;;
62050;SDS011;48008;51.204;6.766;2022-09-12T08:26:48;29.27;;;14.80;;
62050;SDS011;48008;51.204;6.766;2022-09-12T08:29:14;27.75;;;15.00;;
62050;SDS011;48008;51.204;6.766;2022-09-12T08:31:41;30.23;;;14.55;;
62050;SDS011;48008;51.204;6.766;2022-09-12T08:34:08;29.55;;;14.63;;
62050;SDS011;48008;51.204;6.766;2022-09-12T08:36:35;28.67;;;15.32;;
62050;SDS011;48008;51.204;6.766;2022-09-12T08:39:03;26.90;;;14.68;;
62050;SDS011;48008;51.204;6.766;2022-09-12T08:41:32;34.47;;;14.23;;
62050;SDS011;48008;51.204;6.766;2022-09-12T08:44:25;27.88;;;14.27;;
62050;SDS011;48008;51.204;6.766;2022-09-12T08:47:26;30.38;;;14.10;;
62050;SDS011;48008;51.204;6.766;2022-09-12T08:55:37;27.13;;;14.27;;
62050;SDS011;48008;51.204;6.766;2022-09-12T09:01:06;25.80;;;14.65;;
62050;SDS011;48008;51.204;6.766;2022-09-12T09:06:51;28.83;;;13.60;;
62050;SDS011;48008;51.204;6.766;2022-09-12T09:12:37;28.65;;;14.50;;
62050;SDS011;48008;51.204;6.766;2022-09-12T09:15:21;24.67;;;14.23;;
62050;SDS011;48008;51.204;6.766;2022-09-12T09:18:40;25.08;;;14.35;;
62050;SDS011;48008;51.204;6.766;2022-09-12T09:20:59;27.33;;;14.15;;
62050;SDS011;48008;51.204;6.766;2022-09-12T09:23:35;29.25;;;14.95;;
62050;SDS011;48008;51.204;6.766;2022-09-12T09:26:10;31.23;;;14.18;;
62050;SDS011;48008;51.204;6.766;2022-09-12T09:28:46;24.52;;;13.85;;
62050;SDS011;48008;51.204;6.766;2022-09-12T09:31:18;29.10;;;13.40;;
62050;SDS011;48008;51.204;6.766;2022-09-12T09:33:47;29.55;;;14.02;;
62050;SDS011;48008;51.204;6.766;2022-09-12T09:36:48;26.45;;;13.32;;
62050;SDS011;48008;51.204;6.766;2022-09-12T09:39:48;22.83;;;11.95;;
62050;SDS011;48008;51.204;6.766;2022-09-12T09:44:55;24.45;;;12.85;;
62050;SDS011;48008;51.204;6.766;2022-09-12T09:47:25;24.05;;;12.20;;
62050;SDS011;48008;51.204;6.766;2022-09-12T09:49:52;24.85;;;12.45;;
62050;SDS011;48008;51.204;6.766;2022-09-12T09:52:20;21.98;;;11.75;;
62050;SDS011;48008;51.204;6.766;2022-09-12T09:54:56;20.48;;;11.57;;
62050;SDS011;48008;51.204;6.766;2022-09-12T09:57:40;20.98;;;12.10;;
62050;SDS011;48008;51.204;6.766;2022-09-12T10:00:19;23.33;;;12.25;;
62050;SDS011;48008;51.204;6.766;2022-09-12T10:05:48;20.95;;;11.50;;
62050;SDS011;48008;51.204;6.766;2022-09-12T10:08:18;24.50;;;12.70;;
62050;SDS011;48008;51.204;6.766;2022-09-12T10:10:56;21.23;;;12.07;;
62050;SDS011;48008;51.204;6.766;2022-09-12T10:13:31;24.98;;;11.43;;
62050;SDS011;48008;51.204;6.766;2022-09-12T10:18:32;19.10;;;11.98;;
62050;SDS011;48008;51.204;6.766;2022-09-12T10:21:10;25.40;;;12.18;;
62050;SDS011;48008;51.204;6.766;2022-09-12T10:23:39;20.30;;;10.73;;
62050;SDS011;48008;51.204;6.766;2022-09-12T10:26:12;23.02;;;11.20;;
62050;SDS011;48008;51.204;6.766;2022-09-12T10:28:43;21.65;;;10.70;;
62050;SDS011;48008;51.204;6.766;2022-09-12T10:31:35;18.88;;;9.82;;
62050;SDS011;48008;51.204;6.766;2022-09-12T10:34:20;23.75;;;10.18;;
62050;SDS011;48008;51.204;6.766;2022-09-12T10:37:00;17.13;;;9.02;;
62050;SDS011;48008;51.204;6.766;2022-09-12T10:39:30;20.77;;;8.23;;
62050;SDS011;48008;51.204;6.766;2022-09-12T10:41:59;20.55;;;9.35;;
62050;SDS011;48008;51.204;6.766;2022-09-12T10:44:27;36.80;;;16.77;;
62050;SDS011;48008;51.204;6.766;2022-09-12T10:46:56;17.63;;;8.82;;
62050;SDS011;48008;51.204;6.766;2022-09-12T10:49:26;17.52;;;7.88;;
62050;SDS011;48008;51.204;6.766;2022-09-12T10:51:56;16.05;;;7.70;;
62050;SDS011;48008;51.204;6.766;2022-09-12T10:54:40;13.50;;;6.60;;
62050;SDS011;48008;51.204;6.766;2022-09-12T10:57:11;18.95;;;6.35;;
62050;SDS011;48008;51.204;6.766;2022-09-12T10:59:57;13.02;;;6.40;;
62050;SDS011;48008;51.204;6.766;2022-09-12T11:02:51;13.80;;;6.35;;
62050;SDS011;48008;51.204;6.766;2022-09-12T11:05:45;12.90;;;5.78;;
62050;SDS011;48008;51.204;6.766;2022-09-12T11:11:23;15.77;;;5.30;;
62050;SDS011;48008;51.204;6.766;2022-09-12T11:14:42;12.65;;;5.85;;
62050;SDS011;48008;51.204;6.766;2022-09-12T11:20:01;12.98;;;5.40;;
62050;SDS011;48008;51.204;6.766;2022-09-12T11:25:56;12.02;;;5.97;;
62050;SDS011;48008;51.204;6.766;2022-09-12T11:28:31;16.65;;;5.80;;
62050;SDS011;48008;51.204;6.766;2022-09-12T11:31:14;14.63;;;5.88;;
62050;SDS011;48008;51.204;6.766;2022-09-12T11:34:01;15.30;;;5.90;;
62050;SDS011;48008;51.204;6.766;2022-09-12T11:36:39;13.57;;;4.97;;
62050;SDS011;48008;51.204;6.766;2022-09-12T11:39:35;9.52;;;4.90;;
62050;SDS011;48008;51.204;6.766;2022-09-12T11:42:08;10.65;;;4.70;;
62050;SDS011;48008;51.204;6.766;2022-09-12T11:44:44;10.38;;;5.43;;
62050;SDS011;48008;51.204;6.766;2022-09-12T11:47:13;10.93;;;5.55;;
62050;SDS011;48008;51.204;6.766;2022-09-12T11:49:48;12.00;;;5.10;;
62050;SDS011;48008;51.204;6.766;2022-09-12T11:52:18;14.57;;;5.13;;
62050;SDS011;48008;51.204;6.766;2022-09-12T11:55:21;13.88;;;5.00;;
62050;SDS011;48008;51.204;6.766;2022-09-12T11:57:43;10.60;;;4.80;;
62050;SDS011;48008;51.204;6.766;2022-09-12T12:05:58;11.25;;;5.00;;
62050;SDS011;48008;51.204;6.766;2022-09-12T12:08:31;9.68;;;5.05;;
62050;SDS011;48008;51.204;6.766;2022-09-12T12:11:04;19.05;;;6.07;;
62050;SDS011;48008;51.204;6.766;2022-09-12T12:13:34;23.92;;;8.90;;
62050;SDS011;48008;51.204;6.766;2022-09-12T12:16:24;10.52;;;4.90;;
62050;SDS011;48008;51.204;6.766;2022-09-12T12:18:59;16.98;;;6.97;;
62050;SDS011;48008;51.204;6.766;2022-09-12T12:29:37;8.32;;;4.28;;
62050;SDS011;48008;51.204;6.766;2022-09-12T12:32:17;12.73;;;4.50;;
62050;SDS011;48008;51.204;6.766;2022-09-12T12:34:45;10.85;;;4.63;;
62050;SDS011;48008;51.204;6.766;2022-09-12T12:40:06;13.30;;;4.07;;
62050;SDS011;48008;51.204;6.766;2022-09-12T12:48:09;10.68;;;4.80;;
62050;SDS011;48008;51.204;6.766;2022-09-12T12:50:39;16.30;;;4.50;;
62050;SDS011;48008;51.204;6.766;2022-09-12T12:53:22;10.07;;;4.28;;
62050;SDS011;48008;51.204;6.766;2022-09-12T12:55:53;23.05;;;11.15;;
62050;SDS011;48008;51.204;6.766;2022-09-12T12:58:37;13.15;;;5.40;;
62050;SDS011;48008;51.204;6.766;2022-09-12T13:01:14;16.83;;;9.73;;
62050;SDS011;48008;51.204;6.766;2022-09-12T13:03:43;9.88;;;4.40;;
62050;SDS011;48008;51.204;6.766;2022-09-12T13:06:20;10.55;;;4.90;;
62050;SDS011;48008;51.204;6.766;2022-09-12T13:09:00;12.02;;;4.03;;
62050;SDS011;48008;51.204;6.766;2022-09-12T13:11:34;8.68;;;3.90;;
62050;SDS011;48008;51.204;6.766;2022-09-12T13:14:04;10.20;;;4.25;;
62050;SDS011;48008;51.204;6.766;2022-09-12T13:16:35;15.40;;;5.53;;
62050;SDS011;48008;51.204;6.766;2022-09-12T13:19:06;9.35;;;4.43;;
62050;SDS011;48008;51.204;6.766;2022-09-12T13:22:14;10.98;;;3.70;;
62050;SDS011;48008;51.204;6.766;2022-09-12T13:24:32;8.18;;;3.50;;
62050;SDS011;48008;51.204;6.766;2022-09-12T13:26:59;9.40;;;3.58;;
62050;SDS011;48008;51.204;6.766;2022-09-12T13:29:26;10.25;;;3.85;;
62050;SDS011;48008;51.204;6.766;2022-09-12T13:31:57;10.05;;;4.10;;
62050;SDS011;48008;51.204;6.766;2022-09-12T13:34:28;11.02;;;3.92;;
62050;SDS011;48008;51.204;6.766;2022-09-12T13:39:47;11.40;;;6.30;;
62050;SDS011;48008;51.204;6.766;2022-09-12T13:45:10;10.85;;;3.80;;
62050;SDS011;48008;51.204;6.766;2022-09-12T13:47:46;9.32;;;4.18;;
62050;SDS011;48008;51.204;6.766;2022-09-12T13:50:17;12.27;;;4.28;;
62050;SDS011;48008;51.204;6.766;2022-09-12T13:52:49;14.80;;;6.25;;
62050;SDS011;48008;51.204;6.766;2022-09-12T13:55:35;11.25;;;4.65;;
62050;SDS011;48008;51.204;6.766;2022-09-12T13:58:38;8.82;;;4.40;;
62050;SDS011;48008;51.204;6.766;2022-09-12T14:01:06;11.23;;;4.93;;
62050;SDS011;48008;51.204;6.766;2022-09-12T14:03:39;11.88;;;4.20;;
62050;SDS011;48008;51.204;6.766;2022-09-12T14:06:28;9.20;;;4.05;;
62050;SDS011;48008;51.204;6.766;2022-09-12T14:09:02;10.13;;;4.20;;
62050;SDS011;48008;51.204;6.766;2022-09-12T14:11:39;9.82;;;4.25;;
62050;SDS011;48008;51.204;6.766;2022-09-12T14:14:06;18.02;;;4.15;;
62050;SDS011;48008;51.204;6.766;2022-09-12T14:16:46;10.00;;;4.05;;
62050;SDS011;48008;51.204;6.766;2022-09-12T14:19:13;11.38;;;4.65;;
62050;SDS011;48008;51.204;6.766;2022-09-12T14:21:42;11.13;;;4.60;;
62050;SDS011;48008;51.204;6.766;2022-09-12T14:24:09;11.68;;;4.80;;
62050;SDS011;48008;51.204;6.766;2022-09-12T14:26:38;44.13;;;29.63;;
62050;SDS011;48008;51.204;6.766;2022-09-12T14:29:07;11.80;;;6.38;;
62050;SDS011;48008;51.204;6.766;2022-09-12T14:31:36;11.65;;;6.30;;
62050;SDS011;48008;51.204;6.766;2022-09-12T14:34:13;9.05;;;3.88;;
62050;SDS011;48008;51.204;6.766;2022-09-12T14:36:46;17.05;;;9.25;;
62050;SDS011;48008;51.204;6.766;2022-09-12T14:39:47;8.68;;;4.20;;
62050;SDS011;48008;51.204;6.766;2022-09-12T14:42:06;13.75;;;6.22;;
62050;SDS011;48008;51.204;6.766;2022-09-12T14:44:42;11.60;;;5.68;;
62050;SDS011;48008;51.204;6.766;2022-09-12T14:47:23;13.05;;;4.55;;
62050;SDS011;48008;51.204;6.766;2022-09-12T14:49:52;11.50;;;5.10;;
62050;SDS011;48008;51.204;6.766;2022-09-12T14:52:30;12.30;;;4.30;;
62050;SDS011;48008;51.204;6.766;2022-09-12T14:55:01;10.00;;;4.30;;
62050;SDS011;48008;51.204;6.766;2022-09-12T14:57:45;12.00;;;4.78;;
62050;SDS011;48008;51.204;6.766;2022-09-12T15:00:15;12.00;;;5.15;;
62050;SDS011;48008;51.204;6.766;2022-09-12T15:02:46;10.32;;;4.65;;
62050;SDS011;48008;51.204;6.766;2022-09-12T15:05:17;9.05;;;4.47;;
62050;SDS011;48008;51.204;6.766;2022-09-12T15:10:29;8.52;;;4.32;;
62050;SDS011;48008;51.204;6.766;2022-09-12T15:15:44;13.32;;;4.93;;
62050;SDS011;48008;51.204;6.766;2022-09-12T15:18:13;11.13;;;5.15;;
62050;SDS011;48008;51.204;6.766;2022-09-12T15:20:40;12.55;;;4.80;;
62050;SDS011;48008;51.204;6.766;2022-09-12T15:23:15;11.13;;;4.63;;
62050;SDS011;48008;51.204;6.766;2022-09-12T15:25:45;10.25;;;4.70;;
62050;SDS011;48008;51.204;6.766;2022-09-12T15:28:15;11.98;;;4.88;;
62050;SDS011;48008;51.204;6.766;2022-09-12T15:30:45;10.27;;;5.05;;
62050;SDS011;48008;51.204;6.766;2022-09-12T15:33:18;12.73;;;5.47;;
62050;SDS011;48008;51.204;6.766;2022-09-12T15:35:48;10.45;;;4.93;;
62050;SDS011;48008;51.204;6.766;2022-09-12T15:38:16;10.20;;;6.00;;
62050;SDS011;48008;51.204;6.766;2022-09-12T15:40:48;11.80;;;5.05;;
62050;SDS011;48008;51.204;6.766;2022-09-12T15:43:18;10.07;;;4.85;;
62050;SDS011;48008;51.204;6.766;2022-09-12T15:45:46;15.27;;;6.43;;
62050;SDS011;48008;51.204;6.766;2022-09-12T15:48:15;9.68;;;4.57;;
62050;SDS011;48008;51.204;6.766;2022-09-12T15:50:42;10.10;;;4.93;;
62050;SDS011;48008;51.204;6.766;2022-09-12T15:53:12;11.65;;;4.90;;
62050;SDS011;48008;51.204;6.766;2022-09-12T15:55:41;9.90;;;4.88;;
62050;SDS011;48008;51.204;6.766;2022-09-12T15:58:09;12.88;;;5.10;;
62050;SDS011;48008;51.204;6.766;2022-09-12T16:00:36;11.25;;;5.25;;
62050;SDS011;48008;51.204;6.766;2022-09-12T16:03:02;10.15;;;5.03;;
62050;SDS011;48008;51.204;6.766;2022-09-12T16:05:30;9.70;;;4.90;;
62050;SDS011;48008;51.204;6.766;2022-09-12T16:07:57;13.07;;;5.55;;
62050;SDS011;48008;51.204;6.766;2022-09-12T16:10:25;9.60;;;5.13;;
62050;SDS011;48008;51.204;6.766;2022-09-12T16:12:54;280.33;;;35.10;;
62050;SDS011;48008;51.204;6.766;2022-09-12T16:15:22;30.10;;;12.45;;
62050;SDS011;48008;51.204;6.766;2022-09-12T16:17:50;15.10;;;5.28;;
62050;SDS011;48008;51.204;6.766;2022-09-12T16:20:17;10.43;;;5.00;;
62050;SDS011;48008;51.204;6.766;2022-09-12T16:22:44;9.88;;;5.13;;
62050;SDS011;48008;51.204;6.766;2022-09-12T16:25:11;11.98;;;4.95;;
62050;SDS011;48008;51.204;6.766;2022-09-12T16:27:37;11.55;;;5.07;;
62050;SDS011;48008;51.204;6.766;2022-09-12T16:30:05;15.48;;;5.47;;
62050;SDS011;48008;51.204;6.766;2022-09-12T16:32:33;13.48;;;4.90;;
62050;SDS011;48008;51.204;6.766;2022-09-12T16:34:59;13.73;;;5.30;;
62050;SDS011;48008;51.204;6.766;2022-09-12T16:37:26;17.88;;;5.20;;
62050;SDS011;48008;51.204;6.766;2022-09-12T16:39:54;10.18;;;5.18;;
62050;SDS011;48008;51.204;6.766;2022-09-12T16:42:21;14.50;;;5.35;;